createdAt,value
2023-01-26T00:00:33.047Z,-9.54
2023-01-26T00:05:40.534Z,-9.53
2023-01-26T00:10:50.963Z,-9.53
2023-01-26T00:15:54.756Z,-9.50
2023-01-26T00:21:00.525Z,-9.47
2023-01-26T00:26:08.131Z,-9.46
2023-01-26T00:31:20.794Z,-9.41
2023-01-26T00:36:25.172Z,-9.39
2023-01-26T00:41:47.872Z,-9.36
2023-01-26T00:46:52.459Z,-9.33
2023-01-26T00:51:56.408Z,-9.28
2023-01-26T00:57:00.411Z,-9.63
2023-01-26T01:02:04.807Z,-9.16
2023-01-26T01:07:08.743Z,-9.14
2023-01-26T01:12:13.909Z,-9.12
2023-01-26T01:17:17.959Z,-9.13
2023-01-26T01:22:22.300Z,-9.03
2023-01-26T01:27:26.751Z,-9.08
2023-01-26T01:32:30.757Z,-8.96
2023-01-26T01:37:34.651Z,-8.91
2023-01-26T01:42:38.698Z,-8.93
2023-01-26T01:47:42.568Z,-8.88
2023-01-26T01:52:47.426Z,-8.85
2023-01-26T01:57:56.098Z,-8.81
2023-01-26T02:03:12.075Z,-8.77
2023-01-26T02:08:19.875Z,-8.75
2023-01-26T02:13:25.711Z,-8.73
2023-01-26T02:18:30.093Z,-8.72
2023-01-26T02:24:13.061Z,-8.71
2023-01-26T02:29:16.971Z,-8.69
2023-01-26T02:34:21.131Z,-8.69
2023-01-26T02:40:04.899Z,-8.65
2023-01-26T02:45:17.228Z,-8.63
2023-01-26T02:50:22.830Z,-8.60
2023-01-26T02:55:26.951Z,-8.64
2023-01-26T03:00:37.900Z,-8.51
2023-01-26T03:05:42.663Z,-8.46
2023-01-26T03:10:48.249Z,-8.66
2023-01-26T03:15:55.245Z,-8.37
2023-01-26T03:21:19.720Z,-8.32
2023-01-26T03:26:42.062Z,-8.25
2023-01-26T03:31:45.979Z,-8.58
2023-01-26T03:36:52.104Z,-8.06
2023-01-26T03:42:15.697Z,-8.00
2023-01-26T03:47:38.342Z,-7.98
2023-01-26T03:53:01.042Z,-7.98
2023-01-26T03:58:04.925Z,-7.93
2023-01-26T04:03:28.978Z,-7.87
2023-01-26T04:08:32.797Z,-7.86
2023-01-26T04:13:58.487Z,-7.86
2023-01-26T04:19:25.378Z,-7.83
2023-01-26T04:24:29.515Z,-7.86
2023-01-26T04:29:34.334Z,-7.71
2023-01-26T04:34:38.370Z,-7.65
2023-01-26T04:39:49.556Z,-7.60
2023-01-26T04:44:54.898Z,-7.47
2023-01-26T04:49:59.833Z,-7.38
2023-01-26T04:55:03.775Z,-7.41
2023-01-26T05:00:11.484Z,-7.40
2023-01-26T05:05:15.487Z,-7.44
2023-01-26T05:10:19.940Z,-7.52
2023-01-26T05:15:50.061Z,-7.59
2023-01-26T05:21:17.320Z,-7.57
2023-01-26T05:26:25.851Z,-7.57
2023-01-26T05:31:33.805Z,-7.57
2023-01-26T05:36:37.586Z,-7.56
2023-01-26T05:41:41.595Z,-7.51
2023-01-26T05:46:54.857Z,-7.48
2023-01-26T05:51:59.933Z,-7.52
2023-01-26T05:57:06.023Z,-7.52
2023-01-26T06:02:13.836Z,-7.57
2023-01-26T06:07:21.839Z,-7.62
2023-01-26T06:12:40.783Z,-7.65
2023-01-26T06:17:54.599Z,-7.65
2023-01-26T06:23:02.376Z,-7.72
2023-01-26T06:28:09.512Z,-7.70
2023-01-26T06:33:13.547Z,-7.78
2023-01-26T06:38:17.503Z,-7.81
2023-01-26T06:43:22.601Z,-7.81
2023-01-26T06:48:29.048Z,-7.81
2023-01-26T06:53:42.628Z,-7.75
2023-01-26T06:58:53.917Z,-7.74
2023-01-26T07:04:28.609Z,-7.75
2023-01-26T07:09:32.588Z,-7.75
2023-01-26T07:14:36.703Z,-8.10
2023-01-26T07:19:40.788Z,-7.79
2023-01-26T07:24:44.611Z,-7.85
2023-01-26T07:29:49.645Z,-7.86
2023-01-26T07:34:53.350Z,-7.90
2023-01-26T07:39:57.676Z,-7.84
2023-01-26T07:45:05.303Z,-7.79
2023-01-26T07:50:11.186Z,-7.79
2023-01-26T07:55:15.805Z,-7.72
2023-01-26T08:00:20.726Z,-7.68
2023-01-26T08:05:24.464Z,-8.06
2023-01-26T08:10:32.425Z,-7.63
2023-01-26T08:15:36.262Z,-7.98
2023-01-26T08:20:41.050Z,-7.63
2023-01-26T08:25:44.947Z,-7.65
2023-01-26T08:30:49.147Z,-7.68
2023-01-26T08:35:52.936Z,-7.62
2023-01-26T08:40:58.540Z,-7.61
2023-01-26T08:46:04.774Z,-7.66
2023-01-26T08:51:09.388Z,-7.98
2023-01-26T08:56:14.468Z,-7.66
2023-01-26T09:01:18.648Z,-7.72
2023-01-26T09:06:22.722Z,-7.66
2023-01-26T09:11:26.645Z,-7.67
2023-01-26T09:16:30.698Z,-7.67
2023-01-26T09:21:34.619Z,-8.12
2023-01-26T09:26:38.920Z,-7.74
2023-01-26T09:31:43.156Z,-7.86
2023-01-26T09:36:47.100Z,-7.90
2023-01-26T09:41:57.533Z,-7.94
2023-01-26T09:47:11.124Z,-7.98
2023-01-26T09:52:29.235Z,-8.02
2023-01-26T09:57:50.143Z,-8.06
2023-01-26T10:03:11.797Z,-8.12
2023-01-26T10:08:19.527Z,-8.17
2023-01-26T10:13:24.153Z,-8.26
2023-01-26T10:18:35.407Z,-8.33
2023-01-26T10:23:48.833Z,-8.94
2023-01-26T10:28:54.011Z,-8.71
2023-01-26T10:34:11.620Z,-8.49
2023-01-26T10:39:18.759Z,-8.54
2023-01-26T10:44:33.707Z,-8.57
2023-01-26T10:49:37.614Z,-8.58
2023-01-26T10:54:44.506Z,-8.66
2023-01-26T10:59:58.868Z,-8.65
2023-01-26T11:05:16.614Z,-8.61
2023-01-26T11:10:28.536Z,-8.64
2023-01-26T11:15:40.988Z,-8.63
2023-01-26T11:20:53.750Z,-8.64
2023-01-26T11:26:25.474Z,-8.65
2023-01-26T11:31:56.047Z,-8.65
2023-01-26T11:37:05.059Z,-8.66
2023-01-26T11:42:58.664Z,-8.67
2023-01-26T11:48:20.529Z,-8.67
2023-01-26T11:53:47.359Z,-8.64
2023-01-26T11:59:22.471Z,-8.63
2023-01-26T12:04:28.633Z,-8.62
2023-01-26T12:09:44.258Z,-8.63
2023-01-26T12:14:52.119Z,-8.65
2023-01-26T12:20:08.977Z,-8.67
2023-01-26T12:25:29.480Z,-8.68
2023-01-26T12:30:42.651Z,-8.70
2023-01-26T12:35:59.098Z,-8.75
2023-01-26T12:41:40.475Z,-8.76
2023-01-26T12:46:51.746Z,-8.80
2023-01-26T12:52:08.503Z,-8.79
2023-01-26T12:57:25.831Z,-8.88
2023-01-26T13:02:34.893Z,-8.83
2023-01-26T13:07:41.156Z,-8.84
2023-01-26T13:13:21.093Z,-8.89
2023-01-26T13:18:50.526Z,-8.92
2023-01-26T13:23:54.490Z,-8.96
2023-01-26T13:29:32.629Z,-8.98
2023-01-26T13:34:57.002Z,-8.99
2023-01-26T13:40:06.495Z,-8.99
2023-01-26T13:45:43.853Z,-8.99
2023-01-26T13:50:52.813Z,-8.98
2023-01-26T13:56:00.752Z,-9.00
2023-01-26T14:01:06.661Z,-8.99
2023-01-26T14:06:16.667Z,-8.99
2023-01-26T14:11:24.439Z,-8.97
2023-01-26T14:16:38.619Z,-9.02
2023-01-26T14:21:50.555Z,-8.95
2023-01-26T14:26:54.578Z,-8.97
2023-01-26T14:32:00.730Z,-9.03
2023-01-26T14:37:16.206Z,-9.00
2023-01-26T14:42:21.592Z,-9.02
2023-01-26T14:47:33.637Z,-9.03
2023-01-26T14:52:45.930Z,-9.05
2023-01-26T14:57:49.950Z,-9.18
2023-01-26T15:02:56.826Z,-9.05
2023-01-26T15:08:03.374Z,-9.04
2023-01-26T15:13:16.659Z,-9.08
2023-01-26T15:18:21.859Z,-9.09
2023-01-26T15:23:30.367Z,-9.12
2023-01-26T15:28:35.351Z,-9.17
2023-01-26T15:33:52.294Z,-9.21
2023-01-26T15:39:14.050Z,-9.25
2023-01-26T15:44:20.842Z,-9.29
2023-01-26T15:49:24.704Z,-9.33
2023-01-26T15:54:28.779Z,-9.43
2023-01-26T15:59:32.523Z,-9.51
2023-01-26T16:04:36.425Z,-9.59
2023-01-26T16:09:41.762Z,-9.67
2023-01-26T16:14:46.095Z,-9.73
2023-01-26T16:19:49.937Z,-9.79
2023-01-26T16:24:53.741Z,-9.94
2023-01-26T16:29:57.627Z,-9.85
2023-01-26T16:35:01.600Z,-9.84
2023-01-26T16:40:07.798Z,-9.80
2023-01-26T16:45:21.933Z,-9.78
2023-01-26T16:50:27.443Z,-10.28
2023-01-26T16:55:31.368Z,-9.75
2023-01-26T17:00:35.225Z,-9.80
2023-01-26T17:05:40.032Z,-9.84
2023-01-26T17:10:59.855Z,-9.66
2023-01-26T17:16:06.636Z,-9.62
2023-01-26T17:21:10.581Z,-9.92
2023-01-26T17:26:17.689Z,-9.36
2023-01-26T17:31:23.257Z,-9.32
2023-01-26T17:36:27.035Z,-9.32
2023-01-26T17:41:31.023Z,-9.29
2023-01-26T17:46:34.758Z,-9.28
2023-01-26T17:51:41.292Z,-9.18
2023-01-26T17:56:45.033Z,-9.15
2023-01-26T18:01:49.120Z,-9.14
2023-01-26T18:06:52.917Z,-9.10
2023-01-26T18:11:56.887Z,-9.07
2023-01-26T18:17:01.108Z,-9.02
2023-01-26T18:22:04.936Z,-9.02
2023-01-26T18:27:09.097Z,-9.03
2023-01-26T18:32:13.257Z,-8.96
2023-01-26T18:37:16.946Z,-8.99
2023-01-26T18:42:20.986Z,-9.28
2023-01-26T18:47:24.750Z,-9.15
2023-01-26T18:52:30.776Z,-9.08
2023-01-26T18:57:35.442Z,-9.15
2023-01-26T19:02:39.381Z,-9.18
2023-01-26T19:07:43.316Z,-9.18
2023-01-26T19:12:50.323Z,-9.18
2023-01-26T19:17:54.323Z,-9.23
2023-01-26T19:22:59.178Z,-9.21
2023-01-26T19:28:03.308Z,-9.21
2023-01-26T19:33:25.581Z,-9.24
2023-01-26T19:38:30.808Z,-9.22
2023-01-26T19:43:34.985Z,-9.31
2023-01-26T19:48:38.955Z,-9.26
2023-01-26T19:53:45.880Z,-9.24
2023-01-26T19:58:55.090Z,-9.23
2023-01-26T20:04:01.289Z,-9.24
2023-01-26T20:09:07.337Z,-9.25
2023-01-26T20:14:12.107Z,-9.26
2023-01-26T20:19:16.096Z,-9.27
2023-01-26T20:24:20.784Z,-9.30
2023-01-26T20:29:25.627Z,-9.27
2023-01-26T20:34:29.668Z,-9.20
2023-01-26T20:39:33.441Z,-9.25
2023-01-26T20:44:40.237Z,-9.16
2023-01-26T20:49:45.411Z,-9.18
2023-01-26T20:54:49.411Z,-9.21
2023-01-26T20:59:53.236Z,-9.19
2023-01-26T21:04:57.138Z,-9.14
2023-01-26T21:10:01.186Z,-9.12
2023-01-26T21:15:08.459Z,-9.08
2023-01-26T21:20:14.449Z,-9.07
2023-01-26T21:25:18.461Z,-9.08
2023-01-26T21:30:22.469Z,-9.10
2023-01-26T21:35:26.255Z,-9.12
2023-01-26T21:40:30.190Z,-9.15
2023-01-26T21:45:54.040Z,-9.16
2023-01-26T21:51:18.100Z,-9.15
2023-01-26T21:56:21.939Z,-9.18
2023-01-26T22:01:26.121Z,-9.21
2023-01-26T22:06:30.742Z,-9.12
2023-01-26T22:11:34.698Z,-9.20
2023-01-26T22:16:39.257Z,-9.07
2023-01-26T22:21:43.642Z,-9.07
2023-01-26T22:26:48.248Z,-9.11
2023-01-26T22:31:53.745Z,-9.11
2023-01-26T22:36:57.651Z,-9.08
2023-01-26T22:42:01.587Z,-9.08
2023-01-26T22:47:05.421Z,-9.09
2023-01-26T22:52:09.359Z,-9.11
2023-01-26T22:57:13.214Z,-9.20
2023-01-26T23:02:16.925Z,-9.02
2023-01-26T23:07:20.770Z,-9.05
2023-01-26T23:12:24.492Z,-8.91
2023-01-26T23:17:28.860Z,-8.81
2023-01-26T23:22:33.003Z,-8.76
2023-01-26T23:27:36.865Z,-8.72
2023-01-26T23:32:40.698Z,-8.67
2023-01-26T23:37:44.458Z,-8.66
2023-01-26T23:43:06.691Z,-8.63
2023-01-26T23:48:12.656Z,-8.52
2023-01-26T23:53:16.415Z,-8.60
2023-01-26T23:58:20.774Z,-8.49
